Time;durP1;ratioP1;P1;durP2;ratioP2;P2;SDS_P1;SDS_P2;PMS_P1;PMS_P2;Temp;Humidity;BMP_temperature;BMP_pressure;BME280_temperature;BME280_humidity;BME280_pressure;Samples;Min_cycle;Max_cycle;Signal;HPM_P1;HPM_P2
2022/09/12 00:00:27;;;;;;;33.05;25.05;;;;;;;;;;5025910;28;20178;-67
2022/09/12 00:02:54;;;;;;;33.70;24.63;;;;;;;;;;5023560;28;20191;-67
2022/09/12 00:05:20;;;;;;;32.80;22.52;;;;;;;;;;5022885;28;20721;-67
2022/09/12 00:07:46;;;;;;;29.92;21.70;;;;;;;;;;5021532;28;20195;-67
2022/09/12 00:10:11;;;;;;;29.08;20.65;;;;;;;;;;5022915;28;20205;-67
2022/09/12 00:12:37;;;;;;;26.65;20.65;;;;;;;;;;5024943;28;20174;-66
2022/09/12 00:15:03;;;;;;;26.00;19.65;;;;;;;;;;5026594;28;20654;-66
2022/09/12 00:17:29;;;;;;;29.63;22.15;;;;;;;;;;5026938;28;20190;-67
2022/09/12 00:19:54;;;;;;;29.13;21.63;;;;;;;;;;5018621;28;20175;-66
2022/09/12 00:22:20;;;;;;;30.80;21.55;;;;;;;;;;5026606;28;20404;-66
2022/09/12 00:24:45;;;;;;;31.27;22.45;;;;;;;;;;5018914;28;20615;-66
2022/09/12 00:27:11;;;;;;;30.45;21.65;;;;;;;;;;5025032;28;20497;-66
2022/09/12 00:29:36;;;;;;;31.52;22.80;;;;;;;;;;5024906;28;20194;-66
2022/09/12 00:32:01;;;;;;;30.95;22.77;;;;;;;;;;5017529;28;20246;-67
2022/09/12 00:34:28;;;;;;;34.20;24.23;;;;;;;;;;5026232;28;20210;-67
2022/09/12 00:36:53;;;;;;;33.80;23.40;;;;;;;;;;5027721;28;20604;-66
2022/09/12 00:39:18;;;;;;;33.75;24.40;;;;;;;;;;5028347;28;20205;-66
2022/09/12 00:41:44;;;;;;;32.83;24.20;;;;;;;;;;5019586;28;20515;-66
2022/09/12 00:44:09;;;;;;;31.73;24.02;;;;;;;;;;5027015;28;20557;-67
2022/09/12 00:46:52;;;;;;;36.03;24.35;;;;;;;;;;5023667;28;20190;-67
2022/09/12 00:49:52;;;;;;;33.08;24.60;;;;;;;;;;5013635;28;20221;-66
2022/09/12 00:52:30;;;;;;;31.45;22.58;;;;;;;;;;5018896;28;20236;-66
2022/09/12 00:55:01;;;;;;;30.48;21.83;;;;;;;;;;5012357;28;20189;-67
2022/09/12 00:57:32;;;;;;;30.52;22.65;;;;;;;;;;5020324;28;20655;-66
2022/09/12 01:00:07;;;;;;;29.20;21.85;;;;;;;;;;5025560;28;20170;-67
2022/09/12 01:02:33;;;;;;;26.90;19.88;;;;;;;;;;5010187;28;20553;-67
2022/09/12 01:04:59;;;;;;;28.08;19.95;;;;;;;;;;5025070;28;20230;-66
2022/09/12 01:07:24;;;;;;;25.13;18.20;;;;;;;;;;5019458;28;20596;-66
2022/09/12 01:09:50;;;;;;;23.48;18.08;;;;;;;;;;5027709;28;20198;-66
2022/09/12 01:12:16;;;;;;;22.45;17.20;;;;;;;;;;5017093;28;20313;-66
2022/09/12 01:14:42;;;;;;;26.15;17.10;;;;;;;;;;5021572;28;20193;-67
2022/09/12 01:17:11;;;;;;;22.50;16.50;;;;;;;;;;5023085;28;20583;-67
2022/09/12 01:20:12;;;;;;;19.42;15.50;;;;;;;;;;5032375;28;20256;-67
2022/09/12 01:23:09;;;;;;;22.85;16.58;;;;;;;;;;5022132;28;20210;-67
2022/09/12 01:25:52;;;;;;;22.85;15.60;;;;;;;;;;5033103;28;20225;-67
2022/09/12 01:28:46;;;;;;;26.98;17.50;;;;;;;;;;5024375;28;20288;-66
2022/09/12 01:31:38;;;;;;;22.35;17.20;;;;;;;;;;5022997;28;20213;-67
2022/09/12 01:34:12;;;;;;;24.20;17.55;;;;;;;;;;5025174;28;20589;-66
2022/09/12 01:36:48;;;;;;;26.23;20.05;;;;;;;;;;5025086;28;20255;-66
2022/09/12 01:39:28;;;;;;;29.95;21.50;;;;;;;;;;5036479;28;20207;-67
2022/09/12 01:42:14;;;;;;;30.35;22.98;;;;;;;;;;5028773;28;20190;-67
2022/09/12 01:44:45;;;;;;;31.65;21.65;;;;;;;;;;5019268;28;20706;-67
2022/09/12 01:47:32;;;;;;;32.13;20.85;;;;;;;;;;5018093;28;20657;-67
2022/09/12 01:49:58;;;;;;;32.60;21.20;;;;;;;;;;5012098;28;20216;-67
2022/09/12 01:52:46;;;;;;;29.13;20.67;;;;;;;;;;5019065;28;20194;-66
2022/09/12 01:55:28;;;;;;;30.52;20.45;;;;;;;;;;5017728;28;20259;-66
2022/09/12 01:58:01;;;;;;;25.15;19.02;;;;;;;;;;5023532;28;20401;-66
2022/09/12 02:00:26;;;;;;;30.13;20.40;;;;;;;;;;5021023;28;20189;-67
2022/09/12 02:03:08;;;;;;;29.63;21.38;;;;;;;;;;5020960;28;20186;-67
2022/09/12 02:05:36;;;;;;;28.23;21.17;;;;;;;;;;5024709;28;20695;-67
2022/09/12 02:08:13;;;;;;;30.48;20.42;;;;;;;;;;5026721;28;20504;-67
2022/09/12 02:10:48;;;;;;;29.45;20.70;;;;;;;;;;5021371;28;20294;-66
2022/09/12 02:13:31;;;;;;;26.52;19.15;;;;;;;;;;5024381;28;20197;-67
2022/09/12 02:16:04;;;;;;;31.08;20.55;;;;;;;;;;5018938;28;20210;-67
2022/09/12 02:18:31;;;;;;;32.65;21.42;;;;;;;;;;5019408;28;20239;-66
2022/09/12 02:20:59;;;;;;;36.35;24.05;;;;;;;;;;5029633;28;20170;-66
2022/09/12 02:23:27;;;;;;;35.17;22.40;;;;;;;;;;5018302;28;20170;-67
2022/09/12 02:25:56;;;;;;;32.25;22.30;;;;;;;;;;5013229;28;20240;-67
2022/09/12 02:28:42;;;;;;;33.63;22.10;;;;;;;;;;5024654;28;20269;-66
2022/09/12 02:31:49;;;;;;;31.38;22.15;;;;;;;;;;5023799;28;20259;-66
2022/09/12 02:34:23;;;;;;;30.45;20.63;;;;;;;;;;5011841;28;20212;-66
2022/09/12 02:37:06;;;;;;;25.88;18.65;;;;;;;;;;5014608;28;20534;-66
2022/09/12 02:39:32;;;;;;;25.52;17.30;;;;;;;;;;5027978;28;20236;-66
2022/09/12 02:42:00;;;;;;;26.98;16.83;;;;;;;;;;5032751;28;20197;-67
2022/09/12 02:44:30;;;;;;;25.17;17.75;;;;;;;;;;5026028;28;20269;-67
2022/09/12 02:47:17;;;;;;;31.20;21.25;;;;;;;;;;5021063;28;20189;-67
2022/09/12 02:49:43;;;;;;;27.05;19.02;;;;;;;;;;5023021;28;20207;-67
2022/09/12 02:52:08;;;;;;;30.60;19.45;;;;;;;;;;5028609;28;20174;-66
2022/09/12 02:54:37;;;;;;;31.38;20.95;;;;;;;;;;5023408;28;20265;-66
2022/09/12 02:57:02;;;;;;;32.40;20.48;;;;;;;;;;5027656;28;20274;-68
2022/09/12 02:59:28;;;;;;;30.45;20.50;;;;;;;;;;5023386;28;20261;-68
2022/09/12 03:02:24;;;;;;;27.42;19.08;;;;;;;;;;5026588;28;20546;-67
2022/09/12 03:05:33;;;;;;;28.88;20.55;;;;;;;;;;5026338;28;20229;-67
2022/09/12 03:08:04;;;;;;;27.98;19.27;;;;;;;;;;4984978;28;20330;-67
2022/09/12 03:10:46;;;;;;;27.08;17.63;;;;;;;;;;4974977;28;20184;-67
2022/09/12 03:13:32;;;;;;;25.13;17.00;;;;;;;;;;4995126;28;20517;-67
2022/09/12 03:16:25;;;;;;;22.52;15.88;;;;;;;;;;5023338;28;20295;-67
2022/09/12 03:19:22;;;;;;;20.35;13.73;;;;;;;;;;5017744;28;20194;-67
2022/09/12 03:22:02;;;;;;;18.88;14.13;;;;;;;;;;5026690;28;20190;-67
2022/09/12 03:24:52;;;;;;;20.70;13.60;;;;;;;;;;5026850;28;20178;-67
2022/09/12 03:27:58;;;;;;;20.52;12.07;;;;;;;;;;5019092;28;20222;-67
2022/09/12 03:30:24;;;;;;;18.38;12.52;;;;;;;;;;5017108;28;20194;-68
2022/09/12 03:32:52;;;;;;;16.77;12.23;;;;;;;;;;5016460;28;20956;-68
2022/09/12 03:35:19;;;;;;;18.17;12.90;;;;;;;;;;5019478;28;21006;-67
2022/09/12 03:37:46;;;;;;;20.35;14.77;;;;;;;;;;5028666;28;20194;-67
2022/09/12 03:40:12;;;;;;;20.23;14.80;;;;;;;;;;5020229;28;20207;-67
2022/09/12 03:42:38;;;;;;;18.35;13.38;;;;;;;;;;5021689;28;20217;-67
2022/09/12 03:45:05;;;;;;;19.52;14.05;;;;;;;;;;5020271;28;20269;-67
2022/09/12 03:47:30;;;;;;;20.77;14.35;;;;;;;;;;5023226;28;20185;-67
2022/09/12 03:49:55;;;;;;;23.90;16.48;;;;;;;;;;5027665;28;20319;-67
2022/09/12 03:52:21;;;;;;;27.02;17.15;;;;;;;;;;5028292;28;20194;-67
2022/09/12 03:54:47;;;;;;;22.85;16.50;;;;;;;;;;5026627;28;20178;-67
2022/09/12 03:57:12;;;;;;;24.58;15.25;;;;;;;;;;5021153;28;20190;-67
2022/09/12 03:59:37;;;;;;;19.98;14.82;;;;;;;;;;5028089;28;20228;-67
2022/09/12 04:02:03;;;;;;;23.77;14.60;;;;;;;;;;5023713;28;20215;-68
2022/09/12 04:04:29;;;;;;;24.85;16.73;;;;;;;;;;5026336;28;20783;-67
2022/09/12 04:06:55;;;;;;;26.83;17.80;;;;;;;;;;5022294;28;20278;-67
2022/09/12 04:09:20;;;;;;;22.85;16.48;;;;;;;;;;5017414;28;20739;-67
2022/09/12 04:11:45;;;;;;;23.92;16.15;;;;;;;;;;5020048;28;20192;-67
2022/09/12 04:14:11;;;;;;;24.58;16.95;;;;;;;;;;5024225;28;20178;-67
2022/09/12 04:16:36;;;;;;;19.50;14.27;;;;;;;;;;5025244;28;20237;-67
2022/09/12 04:19:02;;;;;;;20.60;15.10;;;;;;;;;;5022014;28;20748;-67
2022/09/12 04:21:28;;;;;;;21.42;15.00;;;;;;;;;;5025920;28;20190;-67
2022/09/12 04:23:53;;;;;;;21.40;14.65;;;;;;;;;;5027116;28;20186;-67
2022/09/12 04:26:19;;;;;;;25.10;14.90;;;;;;;;;;5018598;28;20580;-67
2022/09/12 04:28:45;;;;;;;20.48;14.55;;;;;;;;;;5021083;28;20548;-67
2022/09/12 04:31:21;;;;;;;22.63;15.85;;;;;;;;;;5014913;28;20237;-67
2022/09/12 04:33:51;;;;;;;19.83;14.07;;;;;;;;;;5020866;28;20178;-67
2022/09/12 04:36:17;;;;;;;23.58;15.52;;;;;;;;;;5023635;28;20217;-66
2022/09/12 04:38:44;;;;;;;26.48;17.23;;;;;;;;;;5022812;28;20178;-67
2022/09/12 04:41:18;;;;;;;26.35;16.63;;;;;;;;;;5022999;28;20184;-66
2022/09/12 04:43:45;;;;;;;29.17;17.23;;;;;;;;;;5021590;28;20173;-67
2022/09/12 04:46:11;;;;;;;27.95;15.60;;;;;;;;;;5023539;28;20234;-67
2022/09/12 04:48:37;;;;;;;25.70;16.27;;;;;;;;;;5026759;28;20249;-67
2022/09/12 04:51:12;;;;;;;29.80;19.02;;;;;;;;;;5026408;28;20181;-67
2022/09/12 04:53:37;;;;;;;25.05;17.00;;;;;;;;;;5020552;28;20201;-67
2022/09/12 04:56:04;;;;;;;22.30;15.38;;;;;;;;;;5024218;28;20174;-67
2022/09/12 04:58:32;;;;;;;21.95;15.07;;;;;;;;;;5024243;28;20192;-67
2022/09/12 05:01:11;;;;;;;21.23;15.27;;;;;;;;;;5022069;28;20259;-67
2022/09/12 05:03:38;;;;;;;23.25;14.43;;;;;;;;;;5023826;28;20184;-67
2022/09/12 05:06:08;;;;;;;20.83;14.00;;;;;;;;;;5023113;28;20523;-67
2022/09/12 05:08:34;;;;;;;20.65;14.05;;;;;;;;;;5023789;28;20193;-67
2022/09/12 05:11:09;;;;;;;18.38;13.73;;;;;;;;;;5023836;28;20190;-67
2022/09/12 05:13:34;;;;;;;20.73;13.82;;;;;;;;;;5026226;28;20193;-67
2022/09/12 05:16:02;;;;;;;22.88;16.40;;;;;;;;;;5025101;28;20616;-67
2022/09/12 05:18:30;;;;;;;31.52;18.70;;;;;;;;;;5017583;28;20272;-67
2022/09/12 05:20:58;;;;;;;27.52;18.10;;;;;;;;;;5017236;28;20522;-67
2022/09/12 05:23:23;;;;;;;27.75;18.08;;;;;;;;;;5023137;28;20272;-67
2022/09/12 05:25:53;;;;;;;24.35;17.50;;;;;;;;;;5026036;28;20590;-67
2022/09/12 05:28:20;;;;;;;25.73;17.08;;;;;;;;;;5023523;28;20296;-67
2022/09/12 05:30:46;;;;;;;26.42;17.50;;;;;;;;;;5022681;28;20634;-67
2022/09/12 05:33:12;;;;;;;28.65;20.15;;;;;;;;;;5024102;28;20213;-68
2022/09/12 05:35:39;;;;;;;29.75;19.30;;;;;;;;;;5020758;28;20183;-68
2022/09/12 05:38:05;;;;;;;25.25;17.55;;;;;;;;;;5018851;28;20175;-68
2022/09/12 05:40:30;;;;;;;25.15;17.67;;;;;;;;;;5027296;28;20205;-67
2022/09/12 05:42:56;;;;;;;27.05;18.08;;;;;;;;;;5026741;28;20194;-67
2022/09/12 05:45:22;;;;;;;24.00;16.98;;;;;;;;;;5023981;28;20561;-68
2022/09/12 05:47:47;;;;;;;26.25;18.55;;;;;;;;;;5025226;28;20185;-68
2022/09/12 05:50:12;;;;;;;25.88;17.05;;;;;;;;;;5029171;28;20178;-67
2022/09/12 05:52:38;;;;;;;25.05;17.20;;;;;;;;;;5018770;28;20226;-68
2022/09/12 05:55:04;;;;;;;24.15;16.75;;;;;;;;;;5027816;28;20186;-67
2022/09/12 05:57:30;;;;;;;25.45;17.65;;;;;;;;;;5030353;28;20209;-68
2022/09/12 05:59:55;;;;;;;29.23;18.75;;;;;;;;;;5025962;28;20241;-67
2022/09/12 06:02:20;;;;;;;27.90;17.55;;;;;;;;;;5024322;28;20658;-68
2022/09/12 06:04:46;;;;;;;30.17;19.25;;;;;;;;;;5029055;28;20226;-68
2022/09/12 06:07:12;;;;;;;28.23;18.98;;;;;;;;;;5029308;28;20673;-68
2022/09/12 06:09:37;;;;;;;24.30;17.05;;;;;;;;;;5026047;28;20185;-68
2022/09/12 06:12:03;;;;;;;32.83;20.15;;;;;;;;;;5030392;28;20268;-67
2022/09/12 06:14:28;;;;;;;31.38;18.15;;;;;;;;;;5017924;28;20182;-67
2022/09/12 06:16:54;;;;;;;31.63;18.85;;;;;;;;;;5029558;28;20174;-67
2022/09/12 06:19:21;;;;;;;39.25;23.75;;;;;;;;;;5028899;28;20202;-67
2022/09/12 06:21:48;;;;;;;43.45;25.40;;;;;;;;;;5018103;28;20273;-67
2022/09/12 06:24:17;;;;;;;45.25;25.42;;;;;;;;;;5016524;28;20193;-68
2022/09/12 06:26:42;;;;;;;46.15;25.33;;;;;;;;;;5025619;28;20605;-68
2022/09/12 06:29:10;;;;;;;47.58;27.15;;;;;;;;;;5027165;28;20297;-68
2022/09/12 06:31:37;;;;;;;51.28;28.13;;;;;;;;;;5025477;28;20205;-68
2022/09/12 06:34:04;;;;;;;49.65;30.20;;;;;;;;;;5025159;28;20185;-67
2022/09/12 06:36:32;;;;;;;47.80;28.05;;;;;;;;;;5025628;28;20284;-68
2022/09/12 06:39:01;;;;;;;53.05;29.42;;;;;;;;;;5027334;28;20182;-68
2022/09/12 06:41:27;;;;;;;51.25;30.00;;;;;;;;;;5027165;28;20262;-67
2022/09/12 06:43:53;;;;;;;54.13;29.15;;;;;;;;;;5023322;28;20180;-67
2022/09/12 06:46:19;;;;;;;49.60;28.42;;;;;;;;;;5029499;28;20186;-68
2022/09/12 06:48:44;;;;;;;50.85;29.13;;;;;;;;;;5029116;28;20283;-67
2022/09/12 06:51:12;;;;;;;47.75;29.77;;;;;;;;;;5027286;28;20630;-67
2022/09/12 06:53:38;;;;;;;50.80;29.48;;;;;;;;;;5026726;28;20212;-67
2022/09/12 06:56:09;;;;;;;50.75;31.38;;;;;;;;;;5027352;28;20178;-67
2022/09/12 06:58:35;;;;;;;54.33;30.17;;;;;;;;;;5027077;28;20186;-67
2022/09/12 07:01:06;;;;;;;47.95;29.20;;;;;;;;;;5026503;28;20198;-67
2022/09/12 07:03:33;;;;;;;50.60;30.40;;;;;;;;;;5029752;28;20186;-67
2022/09/12 07:06:03;;;;;;;54.30;29.42;;;;;;;;;;5021941;28;20226;-68
2022/09/12 07:08:30;;;;;;;50.67;30.02;;;;;;;;;;5024801;28;20277;-67
2022/09/12 07:10:56;;;;;;;50.22;30.13;;;;;;;;;;5026255;28;20186;-67
2022/09/12 07:13:21;;;;;;;48.83;28.83;;;;;;;;;;5025187;28;20265;-67
2022/09/12 07:15:47;;;;;;;54.22;31.25;;;;;;;;;;5022438;28;20494;-67
2022/09/12 07:18:13;;;;;;;50.58;29.58;;;;;;;;;;5020325;28;20486;-67
2022/09/12 07:20:38;;;;;;;57.30;31.70;;;;;;;;;;5024227;28;20217;-67
2022/09/12 07:23:04;;;;;;;48.05;30.95;;;;;;;;;;5030489;28;20220;-67
2022/09/12 07:25:29;;;;;;;50.08;30.75;;;;;;;;;;5029705;28;20232;-67
2022/09/12 07:27:54;;;;;;;54.47;30.67;;;;;;;;;;5024469;28;20492;-67
2022/09/12 07:30:21;;;;;;;49.88;31.65;;;;;;;;;;5023789;28;20217;-67
2022/09/12 07:32:46;;;;;;;48.55;29.80;;;;;;;;;;5025520;28;20312;-67
2022/09/12 07:35:12;;;;;;;53.30;30.58;;;;;;;;;;5027198;28;20194;-67
2022/09/12 07:37:37;;;;;;;52.97;31.35;;;;;;;;;;5027767;28;20549;-66
2022/09/12 07:40:03;;;;;;;50.72;31.33;;;;;;;;;;5030350;28;20558;-67
2022/09/12 07:42:28;;;;;;;54.17;32.53;;;;;;;;;;5028831;28;20182;-67
2022/09/12 07:44:53;;;;;;;48.20;31.80;;;;;;;;;;5021157;28;20182;-67
2022/09/12 07:47:19;;;;;;;53.65;31.38;;;;;;;;;;5028171;28;20189;-67
2022/09/12 07:49:44;;;;;;;53.55;31.80;;;;;;;;;;5026243;28;20174;-67
2022/09/12 07:52:09;;;;;;;55.70;32.30;;;;;;;;;;5027690;28;20212;-67
2022/09/12 07:54:35;;;;;;;53.33;32.65;;;;;;;;;;5026251;28;20528;-68
2022/09/12 07:57:00;;;;;;;53.85;32.70;;;;;;;;;;5028251;28;20553;-67
2022/09/12 07:59:26;;;;;;;47.55;31.77;;;;;;;;;;5025783;28;20241;-67
2022/09/12 08:01:52;;;;;;;52.10;30.25;;;;;;;;;;5027409;28;20578;-67
2022/09/12 08:04:17;;;;;;;45.58;28.70;;;;;;;;;;5025746;28;20255;-67
2022/09/12 08:06:43;;;;;;;45.78;29.63;;;;;;;;;;5029005;28;20229;-66
2022/09/12 08:09:10;;;;;;;51.83;30.67;;;;;;;;;;5027234;28;20231;-67
2022/09/12 08:11:36;;;;;;;47.85;29.15;;;;;;;;;;5028539;28;20379;-66
2022/09/12 08:14:04;;;;;;;44.95;28.50;;;;;;;;;;5026268;28;20186;-67
2022/09/12 08:16:30;;;;;;;42.42;28.45;;;;;;;;;;5028557;28;20196;-67
2022/09/12 08:18:56;;;;;;;43.03;26.05;;;;;;;;;;5026989;28;20691;-67
2022/09/12 08:21:24;;;;;;;43.03;26.98;;;;;;;;;;5026154;28;20178;-66
2022/09/12 08:23:55;;;;;;;38.63;25.20;;;;;;;;;;5028202;28;20590;-67
2022/09/12 08:26:21;;;;;;;39.75;24.83;;;;;;;;;;5024847;28;20273;-66
2022/09/12 08:28:46;;;;;;;40.00;26.00;;;;;;;;;;5027899;28;20249;-66
2022/09/12 08:31:15;;;;;;;41.65;25.63;;;;;;;;;;5025548;28;20269;-67
2022/09/12 08:33:40;;;;;;;37.42;24.48;;;;;;;;;;5026157;28;20820;-67
2022/09/12 08:36:14;;;;;;;29.60;20.42;;;;;;;;;;5023977;28;20182;-66
2022/09/12 08:38:44;;;;;;;39.45;25.02;;;;;;;;;;5024652;28;20196;-67
2022/09/12 08:41:22;;;;;;;38.72;25.13;;;;;;;;;;5024860;28;20222;-67
2022/09/12 08:44:01;;;;;;;38.05;24.75;;;;;;;;;;5025162;28;20186;-66
2022/09/12 08:46:34;;;;;;;38.38;25.60;;;;;;;;;;5024419;28;20231;-66
2022/09/12 08:49:01;;;;;;;35.22;23.55;;;;;;;;;;5027759;28;20186;-66
2022/09/12 08:51:28;;;;;;;38.45;25.55;;;;;;;;;;5027815;28;20188;-66
2022/09/12 08:53:56;;;;;;;36.97;25.88;;;;;;;;;;5026433;28;20189;-66
2022/09/12 08:56:22;;;;;;;35.03;23.92;;;;;;;;;;5024505;28;20186;-65
2022/09/12 08:58:47;;;;;;;44.08;26.70;;;;;;;;;;5024012;28;20201;-64
2022/09/12 09:01:45;;;;;;;38.50;24.77;;;;;;;;;;5019008;28;20234;-64
2022/09/12 09:04:42;;;;;;;38.13;24.77;;;;;;;;;;5026423;28;20507;-65
2022/09/12 09:07:32;;;;;;;37.95;23.10;;;;;;;;;;5026688;28;20292;-64
2022/09/12 09:10:09;;;;;;;35.20;24.00;;;;;;;;;;5027242;28;20167;-64
2022/09/12 09:13:03;;;;;;;34.88;22.55;;;;;;;;;;5025886;28;20244;-64
2022/09/12 09:16:20;;;;;;;33.47;23.75;;;;;;;;;;5031291;28;20182;-65
2022/09/12 09:18:47;;;;;;;32.42;22.40;;;;;;;;;;4991837;28;20201;-64
2022/09/12 09:21:24;;;;;;;35.08;22.50;;;;;;;;;;5029448;28;20209;-65
2022/09/12 09:23:56;;;;;;;36.55;22.40;;;;;;;;;;5032125;28;20200;-65
2022/09/12 09:26:37;;;;;;;32.70;22.50;;;;;;;;;;5026121;28;20205;-65
2022/09/12 09:29:21;;;;;;;31.27;20.60;;;;;;;;;;5032626;28;20583;-64
2022/09/12 09:31:50;;;;;;;26.38;19.50;;;;;;;;;;5019444;28;20304;-64
2022/09/12 09:34:24;;;;;;;26.60;19.40;;;;;;;;;;5031824;28;20620;-65
2022/09/12 09:37:25;;;;;;;30.33;21.55;;;;;;;;;;5032578;28;20201;-64
2022/09/12 09:40:02;;;;;;;34.70;21.65;;;;;;;;;;5027002;28;20204;-65
2022/09/12 09:42:30;;;;;;;30.63;21.42;;;;;;;;;;5031247;28;20235;-65
2022/09/12 09:45:00;;;;;;;32.78;21.40;;;;;;;;;;5030730;28;20720;-64
2022/09/12 09:47:26;;;;;;;30.83;21.95;;;;;;;;;;5029612;28;20175;-64
2022/09/12 09:49:51;;;;;;;31.05;21.42;;;;;;;;;;5028835;28;20236;-64
2022/09/12 09:52:24;;;;;;;28.08;19.20;;;;;;;;;;5030810;28;20646;-65
2022/09/12 09:54:56;;;;;;;31.27;21.33;;;;;;;;;;5026937;28;20190;-64
2022/09/12 09:57:33;;;;;;;29.02;21.80;;;;;;;;;;5028622;28;20182;-64
2022/09/12 10:00:24;;;;;;;30.52;20.95;;;;;;;;;;5030517;28;20573;-64
2022/09/12 10:03:07;;;;;;;39.17;21.73;;;;;;;;;;5028005;28;20229;-64
2022/09/12 10:05:42;;;;;;;29.90;20.35;;;;;;;;;;5030194;28;20580;-65
2022/09/12 10:08:08;;;;;;;30.02;20.75;;;;;;;;;;5031007;28;20264;-65
2022/09/12 10:10:33;;;;;;;27.45;19.98;;;;;;;;;;5031012;28;20285;-64
2022/09/12 10:13:08;;;;;;;28.23;19.48;;;;;;;;;;5030743;28;20612;-64
2022/09/12 10:15:34;;;;;;;26.17;17.27;;;;;;;;;;5030572;28;20192;-64
2022/09/12 10:17:59;;;;;;;29.15;18.95;;;;;;;;;;5028932;28;20186;-64
2022/09/12 10:20:44;;;;;;;28.75;19.27;;;;;;;;;;5030484;28;20222;-64
2022/09/12 10:23:34;;;;;;;25.92;19.63;;;;;;;;;;5029734;28;20189;-64
2022/09/12 10:26:03;;;;;;;24.95;18.00;;;;;;;;;;5030214;28;20193;-64
2022/09/12 10:28:44;;;;;;;27.23;18.42;;;;;;;;;;5030114;28;20178;-64
2022/09/12 10:31:14;;;;;;;25.95;17.08;;;;;;;;;;5027374;28;20649;-64
2022/09/12 10:33:52;;;;;;;21.02;15.50;;;;;;;;;;5028697;28;20189;-65
2022/09/12 10:36:18;;;;;;;20.33;15.63;;;;;;;;;;5029731;28;20638;-64
2022/09/12 10:38:50;;;;;;;21.05;15.75;;;;;;;;;;5028551;28;20295;-64
2022/09/12 10:41:16;;;;;;;19.45;14.88;;;;;;;;;;5030654;28;20268;-65
2022/09/12 10:43:42;;;;;;;20.30;14.93;;;;;;;;;;5029768;28;20669;-64
2022/09/12 10:46:14;;;;;;;20.58;15.38;;;;;;;;;;5028655;28;20197;-64
2022/09/12 10:48:40;;;;;;;18.13;13.45;;;;;;;;;;5029971;28;20598;-64
2022/09/12 10:51:25;;;;;;;18.65;14.95;;;;;;;;;;5022438;28;20183;-64
2022/09/12 10:53:59;;;;;;;18.02;14.00;;;;;;;;;;5028262;28;20190;-65
2022/09/12 10:56:36;;;;;;;21.58;14.68;;;;;;;;;;5025156;28;20405;-64
2022/09/12 10:59:19;;;;;;;19.35;13.88;;;;;;;;;;5022984;28;20658;-64
2022/09/12 11:01:54;;;;;;;17.95;13.50;;;;;;;;;;5022558;28;20292;-66
2022/09/12 11:04:29;;;;;;;17.02;13.18;;;;;;;;;;5015171;28;20197;-64
2022/09/12 11:07:05;;;;;;;20.52;13.48;;;;;;;;;;5027519;28;20276;-64
2022/09/12 11:09:44;;;;;;;22.08;14.65;;;;;;;;;;5015147;28;20257;-65
2022/09/12 11:12:48;;;;;;;19.17;13.93;;;;;;;;;;5022966;28;20586;-65
2022/09/12 11:15:13;;;;;;;19.77;13.15;;;;;;;;;;5027762;28;20198;-65
2022/09/12 11:17:55;;;;;;;20.55;13.18;;;;;;;;;;5027967;28;20182;-65
2022/09/12 11:20:52;;;;;;;15.85;11.20;;;;;;;;;;5029797;28;20304;-64
2022/09/12 11:23:38;;;;;;;19.70;13.18;;;;;;;;;;5018561;28;20252;-64
2022/09/12 11:26:15;;;;;;;21.40;13.40;;;;;;;;;;5019634;28;20558;-64
2022/09/12 11:29:07;;;;;;;15.25;11.75;;;;;;;;;;5030133;28;20193;-64
2022/09/12 11:31:50;;;;;;;12.43;9.93;;;;;;;;;;5016815;28;20209;-65
2022/09/12 11:34:32;;;;;;;12.68;10.68;;;;;;;;;;5014162;28;20252;-64
2022/09/12 11:37:22;;;;;;;16.00;12.52;;;;;;;;;;5028770;28;20268;-64
2022/09/12 11:39:51;;;;;;;16.20;11.63;;;;;;;;;;5016975;28;20198;-64
2022/09/12 11:42:35;;;;;;;15.75;11.52;;;;;;;;;;5024038;28;20853;-65
2022/09/12 11:45:25;;;;;;;14.25;10.57;;;;;;;;;;5014691;28;20673;-65
2022/09/12 11:47:57;;;;;;;12.82;8.43;;;;;;;;;;5025099;28;20225;-65
2022/09/12 11:50:28;;;;;;;9.95;6.80;;;;;;;;;;5030008;28;20330;-64
2022/09/12 11:53:05;;;;;;;12.25;8.30;;;;;;;;;;5022734;28;20217;-69
2022/09/12 11:55:49;;;;;;;11.90;8.25;;;;;;;;;;5012511;28;20194;-68
2022/09/12 11:58:18;;;;;;;11.27;8.38;;;;;;;;;;5027906;28;20196;-65
2022/09/12 12:00:49;;;;;;;15.10;8.45;;;;;;;;;;5023992;28;20218;-66
2022/09/12 12:03:35;;;;;;;11.60;8.98;;;;;;;;;;5020977;28;20761;-65
2022/09/12 12:06:05;;;;;;;11.18;7.78;;;;;;;;;;5020551;28;20257;-65
2022/09/12 12:08:37;;;;;;;10.07;6.35;;;;;;;;;;5022679;28;20669;-65
2022/09/12 12:11:04;;;;;;;8.65;6.57;;;;;;;;;;5018718;28;20517;-65
2022/09/12 12:13:35;;;;;;;10.60;6.00;;;;;;;;;;5029421;28;20178;-65
2022/09/12 12:16:06;;;;;;;10.15;7.70;;;;;;;;;;5027956;28;20247;-65
2022/09/12 12:18:34;;;;;;;9.88;6.60;;;;;;;;;;5029580;28;20193;-66
2022/09/12 12:21:19;;;;;;;8.05;5.47;;;;;;;;;;5019392;28;20202;-65
2022/09/12 12:24:07;;;;;;;6.97;5.22;;;;;;;;;;5018381;28;20635;-65
2022/09/12 12:26:44;;;;;;;8.60;6.13;;;;;;;;;;5022822;28;20192;-65
2022/09/12 12:29:36;;;;;;;7.00;4.97;;;;;;;;;;5023348;28;20174;-66
2022/09/12 12:32:01;;;;;;;9.63;6.55;;;;;;;;;;5024574;28;20212;-66
2022/09/12 12:34:26;;;;;;;6.95;6.25;;;;;;;;;;5025570;28;20178;-65
2022/09/12 12:36:51;;;;;;;8.00;5.45;;;;;;;;;;5026404;28;20546;-65
2022/09/12 12:39:32;;;;;;;7.18;5.05;;;;;;;;;;5025968;28;20189;-65
2022/09/12 12:42:00;;;;;;;7.90;6.05;;;;;;;;;;5024076;28;20287;-65
2022/09/12 12:44:44;;;;;;;9.50;6.60;;;;;;;;;;5025592;28;20186;-66
2022/09/12 12:47:20;;;;;;;7.78;5.03;;;;;;;;;;5023646;28;20711;-65
2022/09/12 12:50:11;;;;;;;7.13;4.68;;;;;;;;;;5016511;28;20181;-65
2022/09/12 12:53:02;;;;;;;5.15;3.92;;;;;;;;;;5019937;28;20190;-65
2022/09/12 12:55:36;;;;;;;5.40;4.88;;;;;;;;;;5018353;28;20221;-65
2022/09/12 12:58:04;;;;;;;4.50;3.88;;;;;;;;;;5021071;28;20668;-65
2022/09/12 13:00:35;;;;;;;5.72;3.40;;;;;;;;;;5024935;28;20202;-65
2022/09/12 13:03:05;;;;;;;6.65;4.57;;;;;;;;;;5024950;28;20583;-64
2022/09/12 13:05:56;;;;;;;6.57;5.28;;;;;;;;;;5018641;28;20236;-65
2022/09/12 13:08:33;;;;;;;6.45;4.28;;;;;;;;;;5024950;28;20764;-65
2022/09/12 13:11:08;;;;;;;5.28;4.32;;;;;;;;;;5019818;28;20260;-65
2022/09/12 13:13:41;;;;;;;7.15;4.78;;;;;;;;;;5020352;28;20184;-65
2022/09/12 13:16:09;;;;;;;5.80;4.28;;;;;;;;;;5021655;28;20178;-66
2022/09/12 13:18:47;;;;;;;5.47;3.90;;;;;;;;;;5023530;28;20190;-65
2022/09/12 13:21:16;;;;;;;11.13;3.75;;;;;;;;;;5020836;28;20365;-65
2022/09/12 13:23:42;;;;;;;6.18;4.55;;;;;;;;;;5024879;28;20601;-65
2022/09/12 13:26:21;;;;;;;4.93;4.18;;;;;;;;;;5025853;28;20178;-65
2022/09/12 13:28:48;;;;;;;5.82;4.10;;;;;;;;;;5024015;28;20298;-66
2022/09/12 13:31:25;;;;;;;4.28;3.88;;;;;;;;;;5023361;28;20235;-65
2022/09/12 13:33:58;;;;;;;6.03;4.38;;;;;;;;;;5025802;28;20194;-66
2022/09/12 13:36:55;;;;;;;7.25;4.97;;;;;;;;;;5025721;28;20213;-66
2022/09/12 13:39:54;;;;;;;6.80;5.22;;;;;;;;;;5024851;28;20300;-66
2022/09/12 13:42:39;;;;;;;5.05;4.20;;;;;;;;;;5019402;28;20196;-66
2022/09/12 13:45:24;;;;;;;10.32;4.82;;;;;;;;;;5023387;28;20205;-66
2022/09/12 13:47:53;;;;;;;4.90;3.85;;;;;;;;;;5020673;28;20190;-65
2022/09/12 13:50:25;;;;;;;6.53;3.97;;;;;;;;;;5025521;28;20672;-66
2022/09/12 13:52:53;;;;;;;6.30;4.93;;;;;;;;;;5021483;28;20237;-66
2022/09/12 13:55:35;;;;;;;7.13;4.60;;;;;;;;;;5024451;28;20651;-66
2022/09/12 13:58:06;;;;;;;4.70;4.00;;;;;;;;;;5021162;28;20574;-66
2022/09/12 14:00:33;;;;;;;4.90;4.05;;;;;;;;;;5023488;28;20289;-65
2022/09/12 14:05:53;;;;;;;6.70;4.30;;;;;;;;;;5024314;28;20232;-66
2022/09/12 14:08:19;;;;;;;5.40;4.15;;;;;;;;;;5028864;28;20186;-65
2022/09/12 14:10:49;;;;;;;4.78;3.55;;;;;;;;;;5025460;28;20268;-66
2022/09/12 14:13:23;;;;;;;4.85;3.47;;;;;;;;;;5030400;28;20685;-65
2022/09/12 14:15:51;;;;;;;4.10;3.58;;;;;;;;;;5027435;28;20268;-66
2022/09/12 14:18:24;;;;;;;4.47;3.45;;;;;;;;;;5029970;28;20273;-66
2022/09/12 14:20:51;;;;;;;4.45;4.05;;;;;;;;;;5027124;28;20256;-66
2022/09/12 14:23:22;;;;;;;5.32;4.13;;;;;;;;;;5029238;28;20186;-64
2022/09/12 14:25:48;;;;;;;5.10;4.60;;;;;;;;;;5030328;28;20541;-64
2022/09/12 14:28:19;;;;;;;7.18;4.03;;;;;;;;;;5017463;28;20658;-65
2022/09/12 14:30:58;;;;;;;7.13;3.90;;;;;;;;;;5025970;28;20213;-66
2022/09/12 14:33:23;;;;;;;4.68;3.33;;;;;;;;;;5028583;28;20178;-64
2022/09/12 14:35:51;;;;;;;7.10;4.13;;;;;;;;;;5025925;28;20194;-65
2022/09/12 14:38:33;;;;;;;5.97;4.25;;;;;;;;;;5028633;28;20182;-64
2022/09/12 14:41:07;;;;;;;7.55;4.82;;;;;;;;;;5027614;28;20202;-64
2022/09/12 14:43:35;;;;;;;7.18;5.18;;;;;;;;;;5029478;28;20199;-64
2022/09/12 14:46:06;;;;;;;6.18;4.60;;;;;;;;;;5027196;28;20198;-66
2022/09/12 14:48:36;;;;;;;6.65;5.10;;;;;;;;;;5028533;28;20190;-65
2022/09/12 14:51:03;;;;;;;9.18;5.10;;;;;;;;;;5024307;28;20182;-65
2022/09/12 14:53:36;;;;;;;6.07;4.43;;;;;;;;;;5030250;28;20186;-65